createdAt,value
2022-09-12T00:00:11.538Z,0.95
2022-09-12T00:02:40.887Z,0.50
2022-09-12T00:05:07.973Z,0.50
2022-09-12T00:07:34.626Z,0.60
2022-09-12T00:10:01.311Z,0.50
2022-09-12T00:12:27.833Z,0.57
2022-09-12T00:14:54.724Z,1.10
2022-09-12T00:17:21.286Z,0.60
2022-09-12T00:19:48.059Z,0.60
2022-09-12T00:22:14.563Z,0.60
2022-09-12T00:24:41.162Z,0.47
2022-09-12T00:27:07.922Z,0.40
2022-09-12T00:29:34.641Z,0.47
2022-09-12T00:32:01.372Z,0.60
2022-09-12T00:34:28.041Z,0.50
2022-09-12T00:36:54.663Z,0.60
2022-09-12T00:39:21.302Z,0.57
2022-09-12T00:41:47.849Z,0.88
2022-09-12T00:44:23.273Z,0.60
2022-09-12T00:49:29.409Z,0.60
2022-09-12T00:52:05.635Z,0.50
2022-09-12T00:54:36.552Z,0.60
2022-09-12T00:57:06.360Z,0.50
2022-09-12T00:59:49.886Z,0.40
2022-09-12T01:02:16.929Z,0.43
2022-09-12T01:04:44.545Z,1.23
2022-09-12T01:07:12.919Z,0.70
2022-09-12T01:09:41.938Z,0.82
2022-09-12T01:12:08.895Z,0.98
2022-09-12T01:14:35.553Z,0.57
2022-09-12T01:17:02.209Z,0.65
2022-09-12T01:19:49.023Z,0.47
2022-09-12T01:22:21.232Z,0.75
2022-09-12T01:25:15.732Z,0.47
2022-09-12T01:28:22.277Z,0.50
2022-09-12T01:30:54.971Z,0.52
2022-09-12T01:33:36.901Z,1.15
2022-09-12T01:36:34.669Z,0.40
2022-09-12T01:39:04.357Z,0.80
2022-09-12T01:41:58.081Z,0.47
2022-09-12T01:44:45.137Z,0.60
2022-09-12T01:47:35.715Z,0.50
2022-09-12T01:50:39.881Z,0.77
2022-09-12T01:53:17.582Z,0.30
2022-09-12T01:55:55.208Z,0.60
2022-09-12T01:58:27.102Z,0.35
2022-09-12T02:01:15.686Z,0.55
2022-09-12T02:04:05.874Z,0.60
2022-09-12T02:06:40.963Z,0.50
2022-09-12T02:09:13.353Z,0.40
2022-09-12T02:11:44.358Z,0.50
2022-09-12T02:14:19.218Z,0.50
2022-09-12T02:16:55.308Z,0.60
2022-09-12T02:19:27.244Z,0.40
2022-09-12T02:21:57.521Z,0.47
2022-09-12T02:24:30.082Z,0.57
2022-09-12T02:27:23.106Z,0.60
2022-09-12T02:29:50.002Z,0.50
2022-09-12T02:32:30.677Z,0.40
2022-09-12T02:35:19.785Z,0.40
2022-09-12T02:38:23.300Z,0.30
2022-09-12T02:40:50.007Z,0.80
2022-09-12T02:43:16.651Z,0.60
2022-09-12T02:45:43.361Z,0.55
2022-09-12T02:48:14.965Z,0.40
2022-09-12T02:50:42.735Z,0.63
2022-09-12T02:53:10.591Z,0.40
2022-09-12T02:55:40.176Z,0.60
2022-09-12T02:58:11.857Z,0.65
2022-09-12T03:00:48.612Z,0.70
2022-09-12T03:03:26.858Z,0.47
2022-09-12T03:06:00.253Z,0.30
2022-09-12T03:08:53.120Z,0.40
2022-09-12T03:11:26.624Z,0.63
2022-09-12T03:14:16.897Z,0.50
2022-09-12T03:16:43.530Z,0.73
2022-09-12T03:19:27.819Z,0.60
2022-09-12T03:22:21.536Z,0.47
2022-09-12T03:24:54.428Z,0.50
2022-09-12T03:27:30.076Z,0.50
2022-09-12T03:29:57.669Z,0.30
2022-09-12T03:32:44.766Z,0.60
2022-09-12T03:35:13.337Z,0.70
2022-09-12T03:37:40.235Z,0.77
2022-09-12T03:40:08.504Z,0.50
2022-09-12T03:42:35.155Z,1.05
2022-09-12T03:45:01.794Z,0.57
2022-09-12T03:47:28.322Z,0.40
2022-09-12T03:49:54.899Z,0.90
2022-09-12T03:52:21.453Z,0.60
2022-09-12T03:54:48.091Z,0.63
2022-09-12T03:57:14.609Z,0.50
2022-09-12T03:59:41.244Z,0.43
2022-09-12T04:02:09.782Z,0.70
2022-09-12T04:04:36.334Z,0.73
2022-09-12T04:07:02.880Z,0.40
2022-09-12T04:09:29.933Z,1.10
2022-09-12T04:11:56.397Z,0.47
2022-09-12T04:14:23.004Z,0.75
2022-09-12T04:16:49.802Z,0.77
2022-09-12T04:19:16.449Z,0.80
2022-09-12T04:21:43.032Z,0.60
2022-09-12T04:24:09.597Z,0.57
2022-09-12T04:26:36.121Z,1.27
2022-09-12T04:29:02.752Z,0.45
2022-09-12T04:31:29.438Z,1.15
2022-09-12T04:34:00.788Z,0.40
2022-09-12T04:36:29.028Z,0.40
2022-09-12T04:38:56.305Z,0.50
2022-09-12T04:41:31.520Z,0.50
2022-09-12T04:44:04.206Z,0.50
2022-09-12T04:46:34.016Z,0.52
2022-09-12T04:49:00.612Z,0.28
2022-09-12T04:51:30.173Z,0.50
2022-09-12T04:53:59.549Z,0.60
2022-09-12T04:56:27.214Z,0.70
2022-09-12T04:58:54.116Z,0.50
2022-09-12T05:01:23.102Z,0.68
2022-09-12T05:03:50.744Z,0.82
2022-09-12T05:06:20.623Z,0.70
2022-09-12T05:08:47.493Z,1.30
2022-09-12T05:11:18.102Z,1.13
2022-09-12T05:13:46.472Z,1.65
2022-09-12T05:16:15.343Z,1.23
2022-09-12T05:18:43.152Z,1.40
2022-09-12T05:21:12.717Z,0.63
2022-09-12T05:23:39.322Z,0.70
2022-09-12T05:26:07.190Z,0.40
2022-09-12T05:28:38.373Z,0.60
2022-09-12T05:31:12.192Z,0.40
2022-09-12T05:33:40.849Z,0.90
2022-09-12T05:36:14.035Z,0.30
2022-09-12T05:38:40.853Z,0.70
2022-09-12T05:41:16.656Z,0.60
2022-09-12T05:43:45.850Z,0.68
2022-09-12T05:46:16.557Z,0.63
2022-09-12T05:48:44.887Z,0.55
2022-09-12T05:51:36.039Z,0.95
2022-09-12T05:54:04.506Z,0.80
2022-09-12T05:56:34.325Z,0.80
2022-09-12T05:59:03.780Z,0.95
2022-09-12T06:01:33.276Z,1.25
2022-09-12T06:04:02.074Z,1.30
2022-09-12T06:06:30.536Z,1.85
2022-09-12T06:09:00.078Z,0.60
2022-09-12T06:11:32.055Z,0.80
2022-09-12T06:14:00.024Z,1.05
2022-09-12T06:16:29.052Z,0.65
2022-09-12T06:18:58.205Z,0.80
2022-09-12T06:21:26.570Z,0.88
2022-09-12T06:23:56.978Z,0.70
2022-09-12T06:26:25.719Z,0.80
2022-09-12T06:28:54.022Z,0.73
2022-09-12T06:31:25.788Z,0.70
2022-09-12T06:33:54.128Z,0.80
2022-09-12T06:36:25.711Z,1.10
2022-09-12T06:39:00.993Z,1.05
2022-09-12T06:41:29.597Z,0.82
2022-09-12T06:43:56.180Z,1.30
2022-09-12T06:46:23.255Z,0.60
2022-09-12T06:48:50.522Z,0.60
2022-09-12T06:51:20.008Z,2.10
2022-09-12T06:53:48.007Z,0.85
2022-09-12T06:56:22.492Z,0.77
2022-09-12T06:58:51.290Z,1.00
2022-09-12T07:01:25.287Z,0.80
2022-09-12T07:03:59.050Z,0.82
2022-09-12T07:06:31.746Z,0.93
2022-09-12T07:08:59.625Z,0.60
2022-09-12T07:11:29.086Z,0.60
2022-09-12T07:13:56.822Z,0.70
2022-09-12T07:16:24.264Z,0.60
2022-09-12T07:18:52.959Z,0.70
2022-09-12T07:21:20.122Z,0.90
2022-09-12T07:23:47.363Z,0.88
2022-09-12T07:26:15.650Z,0.70
2022-09-12T07:28:43.083Z,0.55
2022-09-12T07:31:15.350Z,0.60
2022-09-12T07:33:43.227Z,0.82
2022-09-12T07:36:14.664Z,0.60
2022-09-12T07:38:42.429Z,0.60
2022-09-12T07:41:33.778Z,0.90
2022-09-12T07:44:01.908Z,0.68
2022-09-12T07:46:30.111Z,0.47
2022-09-12T07:48:58.789Z,0.50
2022-09-12T07:51:27.351Z,0.70
2022-09-12T07:53:54.226Z,0.50
2022-09-12T07:56:22.575Z,0.70
2022-09-12T07:58:50.709Z,0.55
2022-09-12T08:01:23.446Z,0.60
2022-09-12T08:03:54.875Z,0.80
2022-09-12T08:06:25.519Z,0.60
2022-09-12T08:08:54.315Z,0.40
2022-09-12T08:11:22.232Z,0.50
2022-09-12T08:13:54.336Z,0.40
2022-09-12T08:16:23.662Z,0.32
2022-09-12T08:18:51.258Z,0.50
2022-09-12T08:21:20.866Z,0.40
2022-09-12T08:23:51.899Z,0.43
2022-09-12T08:26:18.479Z,0.60
2022-09-12T08:28:46.089Z,0.52
2022-09-12T08:31:14.984Z,0.30
2022-09-12T08:33:41.525Z,0.40
2022-09-12T08:36:22.894Z,0.47
2022-09-12T08:38:57.372Z,0.50
2022-09-12T08:41:31.165Z,0.43
2022-09-12T08:44:09.307Z,0.80
2022-09-12T08:47:17.816Z,0.38
2022-09-12T08:50:00.672Z,0.52
2022-09-12T08:52:33.483Z,0.40
2022-09-12T08:55:01.942Z,0.50
2022-09-12T08:57:28.576Z,0.40
2022-09-12T08:59:55.897Z,0.60
2022-09-12T09:02:36.315Z,0.50
2022-09-12T09:05:15.215Z,0.50
2022-09-12T09:07:42.150Z,0.40
2022-09-12T09:10:23.497Z,0.40
2022-09-12T09:13:12.742Z,0.60
2022-09-12T09:16:03.966Z,0.47
2022-09-12T09:18:35.148Z,0.50
2022-09-12T09:21:08.898Z,0.55
2022-09-12T09:23:46.778Z,0.50
2022-09-12T09:26:30.455Z,0.40
2022-09-12T09:29:02.458Z,0.50
2022-09-12T09:31:35.751Z,0.50
2022-09-12T09:34:13.098Z,0.40
2022-09-12T09:36:49.409Z,0.45
2022-09-12T09:39:53.218Z,0.55
2022-09-12T09:42:50.332Z,0.40
2022-09-12T09:45:20.759Z,0.50
2022-09-12T09:47:54.500Z,1.02
2022-09-12T09:50:21.311Z,0.45
2022-09-12T09:52:50.655Z,0.88
2022-09-12T09:55:23.345Z,1.25
2022-09-12T09:57:51.100Z,0.80
2022-09-12T10:00:27.706Z,0.60
2022-09-12T10:03:26.817Z,0.80
2022-09-12T10:05:57.132Z,0.90
2022-09-12T10:08:31.642Z,0.82
2022-09-12T10:11:01.934Z,0.80
2022-09-12T10:13:41.839Z,0.80
2022-09-12T10:16:29.237Z,0.75
2022-09-12T10:19:00.598Z,1.20
2022-09-12T10:21:32.030Z,0.70
2022-09-12T10:24:03.711Z,0.82
2022-09-12T10:26:37.546Z,0.80
2022-09-12T10:29:15.463Z,0.80
2022-09-12T10:31:57.518Z,0.57
2022-09-12T10:34:32.355Z,0.80
2022-09-12T10:37:02.870Z,1.17
2022-09-12T10:39:31.028Z,1.42
2022-09-12T10:41:57.522Z,1.70
2022-09-12T10:44:33.039Z,1.80
2022-09-12T10:47:19.381Z,1.48
2022-09-12T10:49:46.084Z,2.30
2022-09-12T10:52:24.337Z,1.25
2022-09-12T10:54:51.882Z,1.85
2022-09-12T10:58:02.863Z,1.13
2022-09-12T11:00:32.114Z,2.40
2022-09-12T11:03:24.774Z,3.25
2022-09-12T11:06:01.687Z,1.80
2022-09-12T11:08:49.496Z,1.33
2022-09-12T11:11:47.251Z,3.60
2022-09-12T11:14:49.741Z,1.90
2022-09-12T11:17:42.218Z,1.10
2022-09-12T11:20:13.518Z,1.13
2022-09-12T11:22:58.420Z,0.90
2022-09-12T11:25:43.331Z,1.00
2022-09-12T11:28:24.998Z,1.20
2022-09-12T11:31:13.460Z,0.80
2022-09-12T11:33:46.308Z,1.17
2022-09-12T11:36:39.040Z,1.10
2022-09-12T11:39:17.313Z,1.30
2022-09-12T11:41:49.856Z,0.88
2022-09-12T11:44:25.503Z,0.80
2022-09-12T11:46:52.414Z,1.00
2022-09-12T11:49:55.034Z,1.20
2022-09-12T11:52:29.178Z,1.27
2022-09-12T11:55:08.491Z,1.33
2022-09-12T11:57:49.241Z,1.30
2022-09-12T12:00:20.175Z,1.33
2022-09-12T12:03:26.691Z,1.48
2022-09-12T12:05:54.511Z,1.20
2022-09-12T12:08:23.296Z,1.35
2022-09-12T12:11:02.109Z,1.20
2022-09-12T12:13:34.164Z,1.33
2022-09-12T12:16:14.814Z,1.33
2022-09-12T12:18:43.595Z,1.83
2022-09-12T12:21:32.106Z,1.65
2022-09-12T12:24:07.693Z,1.50
2022-09-12T12:26:40.614Z,1.25
2022-09-12T12:29:44.245Z,1.38
2022-09-12T12:32:11.050Z,1.65
2022-09-12T12:34:43.116Z,1.65
2022-09-12T12:37:30.028Z,1.00
2022-09-12T12:40:21.406Z,1.30
2022-09-12T12:42:47.960Z,1.38
2022-09-12T12:45:17.898Z,1.00
2022-09-12T12:47:47.612Z,0.70
2022-09-12T12:50:26.119Z,1.17
2022-09-12T12:52:54.938Z,1.00
2022-09-12T12:55:45.739Z,1.27
2022-09-12T12:58:27.412Z,1.13
2022-09-12T13:01:17.033Z,1.20
2022-09-12T13:03:47.061Z,1.20
2022-09-12T13:06:31.449Z,1.20
2022-09-12T13:09:32.887Z,0.85
2022-09-12T13:12:08.573Z,1.20
2022-09-12T13:14:47.710Z,1.30
2022-09-12T13:17:17.577Z,1.30
2022-09-12T13:19:44.353Z,1.00
2022-09-12T13:22:10.875Z,1.00
2022-09-12T13:24:52.073Z,1.55
2022-09-12T13:27:23.920Z,1.23
2022-09-12T13:30:05.327Z,1.30
2022-09-12T13:32:32.401Z,1.10
2022-09-12T13:35:35.898Z,1.70
2022-09-12T13:38:33.108Z,1.20
2022-09-12T13:41:20.667Z,1.02
2022-09-12T13:43:48.244Z,1.13
2022-09-12T13:46:23.870Z,1.20
2022-09-12T13:48:50.590Z,1.10
2022-09-12T13:51:27.459Z,1.08
2022-09-12T13:53:57.802Z,1.10
2022-09-12T13:56:24.417Z,1.08
2022-09-12T13:59:02.483Z,1.05
2022-09-12T14:01:41.039Z,1.33
2022-09-12T14:04:35.901Z,1.15
2022-09-12T14:07:11.606Z,1.00
2022-09-12T14:09:41.771Z,1.00
2022-09-12T14:12:32.381Z,0.93
2022-09-12T14:14:59.146Z,1.10
2022-09-12T14:17:35.573Z,1.20
2022-09-12T14:20:23.545Z,1.10
2022-09-12T14:22:53.559Z,1.00
2022-09-12T14:25:23.622Z,0.90
2022-09-12T14:27:54.008Z,1.55
2022-09-12T14:30:20.498Z,0.90
2022-09-12T14:33:11.805Z,1.00
2022-09-12T14:35:49.453Z,1.10
2022-09-12T14:38:15.984Z,0.90
2022-09-12T14:40:46.310Z,0.95
2022-09-12T14:43:26.893Z,1.70
2022-09-12T14:45:56.255Z,1.10
2022-09-12T14:48:23.252Z,0.80
2022-09-12T14:50:52.209Z,1.00
2022-09-12T14:53:18.745Z,0.90
2022-09-12T14:55:57.973Z,1.10
2022-09-12T14:58:28.243Z,1.05
2022-09-12T15:01:21.852Z,0.90
2022-09-12T15:03:51.678Z,1.00
2022-09-12T15:06:30.900Z,0.60
2022-09-12T15:09:02.155Z,1.00
2022-09-12T15:11:28.824Z,0.82
2022-09-12T15:13:55.406Z,1.05
2022-09-12T15:16:22.173Z,0.95
2022-09-12T15:18:48.798Z,1.10
2022-09-12T15:21:20.455Z,1.15
2022-09-12T15:23:49.445Z,1.10
2022-09-12T15:26:22.591Z,1.20
2022-09-12T15:28:50.748Z,0.80
2022-09-12T15:31:25.661Z,1.00
2022-09-12T15:33:53.104Z,1.15
2022-09-12T15:36:21.686Z,1.00
2022-09-12T15:38:49.254Z,1.33
2022-09-12T15:41:26.747Z,1.15
2022-09-12T15:43:53.660Z,1.00
2022-09-12T15:46:20.237Z,0.93
2022-09-12T15:48:46.989Z,0.90
2022-09-12T15:51:19.449Z,0.82
2022-09-12T15:53:47.730Z,0.70
2022-09-12T15:56:16.805Z,0.90
2022-09-12T15:58:57.609Z,1.00
2022-09-12T16:01:25.365Z,0.98
2022-09-12T16:03:52.105Z,0.90
2022-09-12T16:06:18.820Z,1.00
2022-09-12T16:08:45.566Z,1.10
2022-09-12T16:11:21.372Z,1.00
2022-09-12T16:13:48.908Z,1.20
2022-09-12T16:16:15.713Z,0.90
2022-09-12T16:18:42.543Z,0.90
2022-09-12T16:21:14.218Z,1.15
2022-09-12T16:23:46.638Z,0.98
2022-09-12T16:26:13.804Z,0.95
2022-09-12T16:28:40.990Z,1.25
2022-09-12T16:31:10.301Z,1.08
2022-09-12T16:33:38.685Z,0.90
2022-09-12T16:36:11.326Z,1.23
2022-09-12T16:38:45.969Z,1.42
2022-09-12T16:41:13.873Z,1.15
2022-09-12T16:43:40.873Z,1.08
2022-09-12T16:46:16.108Z,1.17
2022-09-12T16:48:49.333Z,1.20
2022-09-12T16:51:20.636Z,1.00
2022-09-12T16:53:48.215Z,1.27
2022-09-12T16:56:15.513Z,1.27
2022-09-12T16:58:42.742Z,1.20
2022-09-12T17:01:15.553Z,0.90
2022-09-12T17:03:42.813Z,1.88
2022-09-12T17:06:15.161Z,1.20
2022-09-12T17:08:44.742Z,1.35
2022-09-12T17:11:13.546Z,1.13
2022-09-12T17:14:03.219Z,1.20
2022-09-12T17:16:28.950Z,1.23
2022-09-12T17:18:55.728Z,1.40
2022-09-12T17:21:25.652Z,1.13
2022-09-12T17:23:52.225Z,1.17
2022-09-12T17:26:18.921Z,1.45
2022-09-12T17:28:45.684Z,1.83
2022-09-12T17:31:14.658Z,1.63
2022-09-12T17:33:42.144Z,1.90
2022-09-12T17:36:15.384Z,1.25
2022-09-12T17:38:45.167Z,1.60
2022-09-12T17:41:21.300Z,1.50
2022-09-12T17:43:55.604Z,1.27
2022-09-12T17:46:27.077Z,1.35
2022-09-12T17:48:56.342Z,1.25
2022-09-12T17:51:25.960Z,1.58
2022-09-12T17:53:59.071Z,1.98
2022-09-12T17:56:27.919Z,1.20
2022-09-12T17:58:55.772Z,1.17
2022-09-12T18:01:41.666Z,1.27
2022-09-12T18:04:10.590Z,1.30
2022-09-12T18:06:37.681Z,1.58
2022-09-12T18:09:07.367Z,2.10
2022-09-12T18:11:34.071Z,1.15
2022-09-12T18:14:01.322Z,1.63
2022-09-12T18:16:28.630Z,1.27
2022-09-12T18:18:55.618Z,1.70
2022-09-12T18:21:22.243Z,1.40
2022-09-12T18:23:48.886Z,1.50
2022-09-12T18:26:15.568Z,1.10
2022-09-12T18:28:44.407Z,1.15
2022-09-12T18:31:14.084Z,0.80
2022-09-12T18:33:41.461Z,1.38
2022-09-12T18:36:10.303Z,1.15
2022-09-12T18:38:37.732Z,1.45
2022-09-12T18:41:10.241Z,1.30
2022-09-12T18:43:37.380Z,1.42
2022-09-12T18:46:12.225Z,1.05
2022-09-12T18:48:39.485Z,1.10
2022-09-12T18:51:08.025Z,1.15
2022-09-12T18:53:35.401Z,1.55
2022-09-12T18:56:08.629Z,1.70
2022-09-12T18:58:42.689Z,1.20
2022-09-12T19:01:21.430Z,1.40
2022-09-12T19:03:48.553Z,1.20
2022-09-12T19:06:20.674Z,1.92
2022-09-12T19:08:48.785Z,1.50
2022-09-12T19:11:15.840Z,1.30
2022-09-12T19:13:44.739Z,1.10
2022-09-12T19:16:16.798Z,1.73
2022-09-12T19:18:43.673Z,1.40
2022-09-12T19:21:24.607Z,1.10
2022-09-12T19:23:52.655Z,1.15
2022-09-12T19:26:21.262Z,1.70
2022-09-12T19:28:48.420Z,1.30
2022-09-12T19:31:19.039Z,1.38
2022-09-12T19:33:46.783Z,1.38
2022-09-12T19:36:34.110Z,1.30
2022-09-12T19:39:02.264Z,1.50
2022-09-12T19:41:28.890Z,1.48
2022-09-12T19:43:56.438Z,1.70
2022-09-12T19:46:24.618Z,1.75
2022-09-12T19:48:52.653Z,1.45
2022-09-12T19:51:21.134Z,1.50
2022-09-12T19:53:50.061Z,1.30
2022-09-12T19:56:16.601Z,2.17
2022-09-12T19:58:45.295Z,2.10
2022-09-12T20:01:13.202Z,1.50
2022-09-12T20:03:40.730Z,1.35
2022-09-12T20:06:09.385Z,1.58
2022-09-12T20:08:37.838Z,1.48
2022-09-12T20:11:04.573Z,1.48
2022-09-12T20:13:31.147Z,1.40
2022-09-12T20:16:07.951Z,1.48
2022-09-12T20:18:35.072Z,1.40
2022-09-12T20:21:24.959Z,1.70
2022-09-12T20:23:51.758Z,1.52
2022-09-12T20:26:20.200Z,1.30
2022-09-12T20:28:47.062Z,1.23
2022-09-12T20:31:15.757Z,1.20
2022-09-12T20:33:42.869Z,1.70
2022-09-12T20:36:12.395Z,1.55
2022-09-12T20:38:39.710Z,2.03
2022-09-12T20:41:09.830Z,1.20
2022-09-12T20:43:38.584Z,1.75
2022-09-12T20:46:10.286Z,1.20
2022-09-12T20:48:37.889Z,1.33
2022-09-12T20:51:05.199Z,1.50
2022-09-12T20:53:35.005Z,1.73
2022-09-12T20:56:03.360Z,1.48
2022-09-12T20:58:29.942Z,1.40
2022-09-12T21:00:57.246Z,1.27
2022-09-12T21:03:25.397Z,1.88
2022-09-12T21:05:52.427Z,1.55
2022-09-12T21:08:18.949Z,1.35
2022-09-12T21:10:45.548Z,1.02
2022-09-12T21:13:13.789Z,1.23
2022-09-12T21:15:41.641Z,1.77
2022-09-12T21:18:08.695Z,1.42
2022-09-12T21:20:35.363Z,1.67
2022-09-12T21:23:02.293Z,1.70
2022-09-12T21:25:29.656Z,1.20
2022-09-12T21:27:56.419Z,1.27
2022-09-12T21:30:23.181Z,1.45
2022-09-12T21:32:49.686Z,1.45
2022-09-12T21:35:16.676Z,1.55
2022-09-12T21:37:43.166Z,1.23
2022-09-12T21:40:10.209Z,1.48
2022-09-12T21:42:36.805Z,1.42
2022-09-12T21:45:03.531Z,1.70
2022-09-12T21:47:30.298Z,1.20
2022-09-12T21:49:57.600Z,1.40
2022-09-12T21:52:24.143Z,1.45
2022-09-12T21:54:50.773Z,1.20
2022-09-12T21:57:17.409Z,1.63
2022-09-12T21:59:44.234Z,1.30
2022-09-12T22:02:12.331Z,2.25
2022-09-12T22:04:39.022Z,1.42
2022-09-12T22:07:05.593Z,1.17
2022-09-12T22:09:34.341Z,1.17
2022-09-12T22:12:02.276Z,1.27
2022-09-12T22:14:29.417Z,1.30
2022-09-12T22:16:56.405Z,2.10
2022-09-12T22:19:22.955Z,1.40
2022-09-12T22:22:07.711Z,1.13
2022-09-12T22:24:34.324Z,1.37
2022-09-12T22:27:03.252Z,1.40
2022-09-12T22:29:29.883Z,1.52
2022-09-12T22:31:56.523Z,1.80
2022-09-12T22:34:23.064Z,1.38
2022-09-12T22:36:49.816Z,1.92
2022-09-12T22:39:16.498Z,1.52
2022-09-12T22:41:43.299Z,1.38
2022-09-12T22:44:10.934Z,1.25
2022-09-12T22:46:38.564Z,1.35
2022-09-12T22:49:06.535Z,1.40
2022-09-12T22:51:33.655Z,1.30
2022-09-12T22:54:00.242Z,1.20
2022-09-12T22:56:27.055Z,1.20
2022-09-12T22:58:53.738Z,1.20
2022-09-12T23:01:20.529Z,1.50
2022-09-12T23:03:47.244Z,1.50
2022-09-12T23:06:13.779Z,1.15
2022-09-12T23:08:40.393Z,1.42
2022-09-12T23:11:13.028Z,1.30
2022-09-12T23:13:42.491Z,2.00
2022-09-12T23:16:16.200Z,1.38
2022-09-12T23:18:42.812Z,1.30
2022-09-12T23:21:11.258Z,1.83
2022-09-12T23:23:38.514Z,1.60
2022-09-12T23:26:04.960Z,1.40
2022-09-12T23:28:32.229Z,1.20
2022-09-12T23:31:00.030Z,1.20
2022-09-12T23:33:30.349Z,1.25
2022-09-12T23:36:05.184Z,1.20
2022-09-12T23:38:33.165Z,1.50
2022-09-12T23:41:00.384Z,1.63
2022-09-12T23:43:27.415Z,1.75
2022-09-12T23:45:54.003Z,1.58
2022-09-12T23:48:20.769Z,1.27
2022-09-12T23:50:48.163Z,1.45
2022-09-12T23:53:16.773Z,1.17
2022-09-12T23:55:44.837Z,1.60
2022-09-12T23:58:12.176Z,1.20
